createdAt,value
2022-09-06T00:01:26.082Z,51.23
2022-09-06T00:03:53.102Z,51.16
2022-09-06T00:06:20.816Z,51.73
2022-09-06T00:08:48.873Z,52.00
2022-09-06T00:11:16.742Z,53.22
2022-09-06T00:13:44.037Z,55.31
2022-09-06T00:16:16.761Z,55.11
2022-09-06T00:18:44.519Z,56.48
2022-09-06T00:21:20.323Z,54.46
2022-09-06T00:23:47.548Z,54.16
2022-09-06T00:26:14.655Z,53.34
2022-09-06T00:28:42.172Z,52.99
2022-09-06T00:31:20.466Z,53.65
2022-09-06T00:33:47.777Z,54.64
2022-09-06T00:36:14.940Z,53.47
2022-09-06T00:38:42.413Z,55.13
2022-09-06T00:41:11.208Z,54.83
2022-09-06T00:43:38.456Z,54.55
2022-09-06T00:46:07.217Z,55.00
2022-09-06T00:48:35.038Z,54.01
2022-09-06T00:51:04.146Z,54.66
2022-09-06T00:53:31.683Z,56.68
2022-09-06T00:55:58.638Z,57.71
2022-09-06T00:58:25.814Z,55.39
2022-09-06T01:00:53.001Z,52.41
2022-09-06T01:03:22.405Z,50.89
2022-09-06T01:06:18.472Z,52.53
2022-09-06T01:09:03.364Z,52.97
2022-09-06T01:11:50.222Z,51.63
2022-09-06T01:14:42.263Z,52.56
2022-09-06T01:17:21.363Z,49.31
2022-09-06T01:20:10.523Z,49.73
2022-09-06T01:23:10.023Z,52.04
2022-09-06T01:25:51.595Z,53.03
2022-09-06T01:28:23.173Z,55.33
2022-09-06T01:31:01.223Z,55.79
2022-09-06T01:33:51.969Z,55.94
2022-09-06T01:36:22.620Z,54.01
2022-09-06T01:38:49.871Z,53.07
2022-09-06T01:41:16.792Z,55.02
2022-09-06T01:43:47.396Z,54.90
2022-09-06T01:46:39.711Z,53.18
2022-09-06T01:49:48.656Z,55.11
2022-09-06T01:52:25.402Z,55.49
2022-09-06T01:55:10.557Z,54.52
2022-09-06T01:57:51.903Z,55.38
2022-09-06T02:00:20.189Z,52.32
2022-09-06T02:02:50.056Z,51.60
2022-09-06T02:05:25.599Z,51.80
2022-09-06T02:07:56.359Z,52.76
2022-09-06T02:10:28.217Z,52.50
2022-09-06T02:12:59.177Z,52.36
2022-09-06T02:15:33.500Z,51.37
2022-09-06T02:18:09.081Z,51.18
2022-09-06T02:20:41.297Z,52.12
2022-09-06T02:23:09.195Z,53.08
2022-09-06T02:25:38.991Z,53.73
2022-09-06T02:28:06.923Z,54.65
2022-09-06T02:30:40.546Z,56.72
2022-09-06T02:33:11.624Z,57.07
2022-09-06T02:35:46.965Z,57.24
2022-09-06T02:38:14.260Z,56.60
2022-09-06T02:40:41.371Z,55.44
2022-09-06T02:43:08.764Z,53.00
2022-09-06T02:45:35.976Z,53.16
2022-09-06T02:48:03.285Z,50.76
2022-09-06T02:50:30.234Z,52.76
2022-09-06T02:53:03.494Z,52.04
2022-09-06T02:55:30.490Z,53.31
2022-09-06T02:57:57.418Z,52.87
2022-09-06T03:00:25.238Z,55.34
2022-09-06T03:02:52.199Z,55.84
2022-09-06T03:05:19.352Z,54.19
2022-09-06T03:07:46.250Z,54.27
2022-09-06T03:10:13.193Z,54.03
2022-09-06T03:12:40.147Z,53.53
2022-09-06T03:15:07.504Z,51.85
2022-09-06T03:17:34.964Z,52.21
2022-09-06T03:20:01.987Z,51.55
2022-09-06T03:22:28.902Z,52.51
2022-09-06T03:24:55.862Z,50.70
2022-09-06T03:27:22.799Z,51.87
2022-09-06T03:29:49.840Z,52.61
2022-09-06T03:32:16.832Z,51.91
2022-09-06T03:34:43.757Z,53.78
2022-09-06T03:37:10.699Z,54.59
2022-09-06T03:39:37.701Z,54.75
2022-09-06T03:42:04.711Z,53.49
2022-09-06T03:44:31.707Z,54.52
2022-09-06T03:46:58.980Z,55.84
2022-09-06T03:49:26.094Z,53.11
2022-09-06T03:51:53.107Z,54.63
2022-09-06T03:54:20.048Z,54.51
2022-09-06T03:56:46.946Z,51.47
2022-09-06T03:59:13.872Z,52.88
2022-09-06T04:01:41.004Z,53.11
2022-09-06T04:04:08.001Z,52.83
2022-09-06T04:06:34.958Z,51.02
2022-09-06T04:09:01.983Z,51.18
2022-09-06T04:11:28.895Z,53.79
2022-09-06T04:13:55.815Z,53.44
2022-09-06T04:16:22.755Z,54.18
2022-09-06T04:18:49.835Z,56.69
2022-09-06T04:21:16.764Z,57.14
2022-09-06T04:23:43.665Z,55.71
2022-09-06T04:26:10.615Z,53.63
2022-09-06T04:28:37.611Z,52.63
2022-09-06T04:31:05.338Z,52.53
2022-09-06T04:33:34.442Z,54.78
2022-09-06T04:36:03.008Z,56.23
2022-09-06T04:38:31.397Z,52.66
2022-09-06T04:40:58.302Z,53.99
2022-09-06T04:43:25.398Z,54.26
2022-09-06T04:45:52.416Z,53.98
2022-09-06T04:48:19.701Z,53.59
2022-09-06T04:50:46.638Z,52.98
2022-09-06T04:53:13.665Z,52.86
2022-09-06T04:55:40.702Z,52.47
2022-09-06T04:58:07.616Z,51.21
2022-09-06T05:00:35.671Z,51.09
2022-09-06T05:03:02.667Z,52.00
2022-09-06T05:05:29.640Z,51.66
2022-09-06T05:07:57.403Z,53.76
2022-09-06T05:10:24.926Z,53.71
2022-09-06T05:12:53.559Z,54.32
2022-09-06T05:15:21.640Z,53.05
2022-09-06T05:17:48.684Z,50.03
2022-09-06T05:20:16.297Z,46.56
2022-09-06T05:22:43.259Z,44.91
2022-09-06T05:25:10.658Z,43.60
2022-09-06T05:27:37.618Z,41.82
2022-09-06T05:30:04.828Z,40.34
2022-09-06T05:32:31.791Z,38.96
2022-09-06T05:34:58.772Z,38.19
2022-09-06T05:37:25.781Z,36.62
2022-09-06T05:39:52.877Z,37.22
2022-09-06T05:42:19.902Z,36.54
2022-09-06T05:44:46.824Z,36.08
2022-09-06T05:47:13.792Z,36.07
2022-09-06T05:49:40.802Z,33.82
2022-09-06T05:52:07.792Z,33.24
2022-09-06T05:54:34.692Z,32.62
2022-09-06T05:57:02.466Z,31.46
2022-09-06T05:59:29.428Z,30.33
2022-09-06T06:01:56.398Z,29.82
2022-09-06T06:04:30.445Z,29.86
2022-09-06T06:06:57.510Z,29.71
2022-09-06T06:09:24.431Z,28.89
2022-09-06T06:11:51.388Z,29.59
2022-09-06T06:14:18.298Z,30.25
2022-09-06T06:16:45.308Z,30.24
2022-09-06T06:19:12.599Z,33.31
2022-09-06T06:21:39.541Z,33.73
2022-09-06T06:24:06.799Z,32.47
2022-09-06T06:26:35.722Z,34.99
2022-09-06T06:29:02.778Z,34.16
2022-09-06T06:31:31.187Z,37.17
2022-09-06T06:33:58.651Z,38.85
2022-09-06T06:36:30.950Z,40.33
2022-09-06T06:38:58.603Z,42.48
2022-09-06T06:41:27.577Z,39.92
2022-09-06T06:44:01.109Z,41.80
2022-09-06T06:46:31.516Z,42.96
2022-09-06T06:48:58.581Z,41.63
2022-09-06T06:51:28.453Z,41.42
2022-09-06T06:53:57.097Z,38.60
2022-09-06T06:56:28.242Z,38.04
2022-09-06T06:59:00.598Z,40.03
2022-09-06T07:01:29.114Z,43.26
2022-09-06T07:03:56.327Z,41.64
2022-09-06T07:09:10.816Z,45.21
2022-09-06T07:11:38.646Z,45.44
2022-09-06T07:14:05.667Z,44.52
2022-09-06T07:16:32.751Z,45.80
2022-09-06T07:19:00.644Z,46.76
2022-09-06T07:21:43.412Z,48.50
2022-09-06T07:24:10.731Z,49.01
2022-09-06T07:26:39.862Z,50.01
2022-09-06T07:29:08.115Z,50.45
2022-09-06T07:34:25.356Z,47.96
2022-09-06T07:36:53.908Z,45.41
2022-09-06T07:39:21.115Z,45.46
2022-09-06T07:41:48.161Z,47.67
2022-09-06T07:44:15.764Z,45.39
2022-09-06T07:46:42.824Z,46.19
2022-09-06T07:49:09.827Z,46.67
2022-09-06T07:51:36.994Z,46.17
2022-09-06T07:54:29.362Z,46.36
2022-09-06T07:56:51.752Z,44.85
2022-09-06T07:59:18.755Z,45.21
2022-09-06T08:01:50.263Z,43.96
2022-09-06T08:04:17.266Z,39.41
2022-09-06T08:09:36.183Z,42.13
2022-09-06T08:12:07.112Z,39.73
2022-09-06T08:14:34.866Z,38.91
2022-09-06T08:17:02.616Z,40.63
2022-09-06T08:19:29.684Z,39.95
2022-09-06T08:21:56.741Z,42.31
2022-09-06T08:24:23.811Z,45.94
2022-09-06T08:26:50.824Z,47.71
2022-09-06T08:29:20.053Z,46.78
2022-09-06T08:31:47.348Z,43.52
2022-09-06T08:34:15.427Z,42.36
2022-09-06T08:36:43.254Z,41.54
2022-09-06T08:39:11.032Z,38.97
2022-09-06T08:42:10.406Z,34.89
2022-09-06T08:44:57.204Z,35.82
2022-09-06T08:47:24.918Z,33.34
2022-09-06T08:49:55.801Z,30.89
2022-09-06T08:53:00.179Z,30.40
2022-09-06T08:55:46.138Z,30.89
2022-09-06T08:58:27.987Z,31.25
2022-09-06T09:01:18.981Z,30.49
2022-09-06T09:03:47.287Z,30.91
2022-09-06T09:06:14.486Z,31.49
2022-09-06T09:09:09.799Z,31.07
2022-09-06T09:11:38.143Z,31.88
2022-09-06T09:14:08.119Z,29.93
2022-09-06T09:16:35.304Z,31.86
2022-09-06T09:19:04.508Z,31.45
2022-09-06T09:21:34.297Z,30.43
2022-09-06T09:24:09.555Z,31.15
2022-09-06T09:26:59.895Z,31.07
2022-09-06T09:29:29.393Z,30.30
2022-09-06T09:31:58.286Z,30.61
2022-09-06T09:34:33.456Z,28.78
2022-09-06T09:40:01.540Z,32.60
2022-09-06T09:42:35.735Z,30.64
2022-09-06T09:45:05.944Z,32.47
2022-09-06T09:47:34.262Z,30.36
2022-09-06T09:50:01.476Z,32.08
2022-09-06T09:52:31.992Z,32.15
2022-09-06T09:55:05.804Z,29.79
2022-09-06T09:57:45.402Z,31.80
2022-09-06T10:00:14.151Z,31.45
2022-09-06T10:02:42.598Z,31.27
2022-09-06T10:05:12.305Z,30.10
2022-09-06T10:07:45.119Z,30.84
2022-09-06T10:10:15.079Z,33.06
2022-09-06T10:12:43.032Z,32.49
2022-09-06T10:15:12.317Z,32.97
2022-09-06T10:17:49.924Z,32.29
2022-09-06T10:20:20.535Z,31.64
2022-09-06T10:22:50.869Z,32.09
2022-09-06T10:25:38.287Z,31.83
2022-09-06T10:28:37.104Z,32.82
2022-09-06T10:31:52.795Z,32.22
2022-09-06T10:34:34.897Z,32.75
2022-09-06T10:37:10.616Z,31.67
2022-09-06T10:39:56.798Z,32.52
2022-09-06T10:42:26.763Z,33.20
2022-09-06T10:45:17.009Z,32.95
2022-09-06T10:47:55.160Z,33.16
2022-09-06T10:50:26.340Z,32.82
2022-09-06T10:52:53.922Z,31.74
2022-09-06T10:55:21.243Z,32.68
2022-09-06T10:58:18.036Z,29.49
2022-09-06T11:00:47.558Z,30.65
2022-09-06T11:06:20.682Z,30.43
2022-09-06T11:09:06.260Z,28.52
2022-09-06T11:11:55.896Z,28.73
2022-09-06T11:14:24.195Z,28.07
2022-09-06T11:16:59.911Z,29.98
2022-09-06T11:20:03.024Z,32.87
2022-09-06T11:22:58.841Z,30.67
2022-09-06T11:25:31.799Z,32.59
2022-09-06T11:28:00.664Z,30.62
2022-09-06T11:30:28.337Z,30.28
2022-09-06T11:33:20.744Z,30.11
2022-09-06T11:35:47.794Z,30.33
2022-09-06T11:38:14.629Z,30.21
2022-09-06T11:40:43.873Z,29.26
2022-09-06T11:43:16.878Z,30.67
2022-09-06T11:45:52.105Z,30.51
2022-09-06T11:48:24.759Z,30.13
2022-09-06T11:51:01.422Z,30.64
2022-09-06T11:53:36.395Z,31.14
2022-09-06T11:56:03.410Z,30.06
2022-09-06T11:59:06.062Z,29.89
2022-09-06T12:01:36.741Z,29.98
2022-09-06T12:04:06.835Z,29.36
2022-09-06T12:07:10.525Z,30.27
2022-09-06T12:09:42.795Z,31.45
2022-09-06T12:12:14.873Z,32.37
2022-09-06T12:14:46.996Z,30.22
2022-09-06T12:17:16.904Z,29.21
2022-09-06T12:19:52.146Z,30.86
2022-09-06T12:22:36.967Z,30.41
2022-09-06T12:25:22.944Z,30.43
2022-09-06T12:27:58.075Z,30.03
2022-09-06T12:30:37.529Z,28.69
2022-09-06T12:33:33.760Z,28.44
2022-09-06T12:36:14.157Z,31.30
2022-09-06T12:38:54.745Z,30.62
2022-09-06T12:41:22.728Z,29.90
2022-09-06T12:43:50.266Z,29.32
2022-09-06T12:46:17.624Z,29.96
2022-09-06T12:49:06.969Z,29.20
2022-09-06T12:51:34.904Z,28.29
2022-09-06T12:54:15.736Z,28.51
2022-09-06T12:56:42.732Z,27.54
2022-09-06T12:59:25.205Z,29.08
2022-09-06T13:02:05.147Z,30.38
2022-09-06T13:04:42.213Z,28.81
2022-09-06T13:07:15.773Z,29.66
2022-09-06T13:09:47.333Z,28.85
2022-09-06T13:12:27.531Z,29.59
2022-09-06T13:14:55.767Z,29.95
2022-09-06T13:17:24.692Z,29.56
2022-09-06T13:19:51.643Z,28.27
2022-09-06T13:22:39.045Z,28.28
2022-09-06T13:25:06.634Z,29.17
2022-09-06T13:27:38.644Z,29.61
2022-09-06T13:30:09.971Z,29.53
2022-09-06T13:32:45.902Z,29.72
2022-09-06T13:35:26.475Z,30.32
2022-09-06T13:37:53.356Z,29.85
2022-09-06T13:41:09.757Z,30.13
2022-09-06T13:43:42.440Z,30.48
2022-09-06T13:46:11.119Z,30.56
2022-09-06T13:48:39.520Z,29.95
2022-09-06T13:51:07.963Z,29.66
2022-09-06T13:53:35.515Z,30.36
2022-09-06T13:56:03.265Z,28.86
2022-09-06T13:58:30.434Z,29.79
2022-09-06T14:00:57.512Z,29.68
2022-09-06T14:03:27.813Z,30.82
2022-09-06T14:05:54.760Z,31.26
2022-09-06T14:08:21.726Z,31.09
2022-09-06T14:10:48.932Z,30.06
2022-09-06T14:13:16.926Z,30.43
2022-09-06T14:15:43.910Z,30.91
2022-09-06T14:18:14.312Z,32.17
2022-09-06T14:20:42.131Z,31.63
2022-09-06T14:23:09.518Z,31.32
2022-09-06T14:25:37.394Z,31.95
2022-09-06T14:28:05.066Z,30.90
2022-09-06T14:30:32.345Z,31.17
2022-09-06T14:32:59.502Z,30.50
2022-09-06T14:35:28.164Z,30.22
2022-09-06T14:37:55.132Z,30.57
2022-09-06T14:40:22.166Z,31.04
2022-09-06T14:42:51.625Z,30.99
2022-09-06T14:45:25.965Z,31.17
2022-09-06T14:47:53.109Z,30.32
2022-09-06T14:50:20.072Z,31.20
2022-09-06T14:52:47.029Z,30.71
2022-09-06T14:55:16.018Z,30.94
2022-09-06T14:57:43.229Z,31.87
2022-09-06T15:00:11.392Z,32.06
2022-09-06T15:02:38.500Z,30.30
2022-09-06T15:05:19.846Z,29.89
2022-09-06T15:07:46.956Z,31.00
2022-09-06T15:10:14.034Z,30.04
2022-09-06T15:12:41.027Z,29.74
2022-09-06T15:15:09.419Z,30.64
2022-09-06T15:17:36.858Z,29.94
2022-09-06T15:20:04.499Z,29.42
2022-09-06T15:22:31.420Z,30.79
2022-09-06T15:24:58.338Z,29.77
2022-09-06T15:27:25.365Z,29.10
2022-09-06T15:29:52.306Z,29.70
2022-09-06T15:32:19.252Z,28.05
2022-09-06T15:34:56.338Z,28.02
2022-09-06T15:37:23.314Z,28.35
2022-09-06T15:39:50.321Z,29.48
2022-09-06T15:42:17.274Z,28.55
2022-09-06T15:44:51.520Z,29.03
2022-09-06T15:47:20.309Z,29.81
2022-09-06T15:49:47.212Z,30.45
2022-09-06T15:52:14.141Z,30.90
2022-09-06T15:54:59.752Z,30.74
2022-09-06T15:57:26.761Z,30.80
2022-09-06T15:59:53.719Z,31.08
2022-09-06T16:02:20.720Z,31.21
2022-09-06T16:04:47.728Z,31.13
2022-09-06T16:07:14.767Z,31.62
2022-09-06T16:09:41.685Z,31.55
2022-09-06T16:12:09.411Z,32.04
2022-09-06T16:14:47.545Z,31.59
2022-09-06T16:17:14.493Z,30.42
2022-09-06T16:19:41.604Z,30.58
2022-09-06T16:22:08.724Z,30.10
2022-09-06T16:24:35.656Z,30.48
2022-09-06T16:27:02.847Z,29.27
2022-09-06T16:29:29.847Z,29.69
2022-09-06T16:31:59.964Z,30.56
2022-09-06T16:34:27.601Z,30.34
2022-09-06T16:36:55.722Z,30.73
2022-09-06T16:39:23.299Z,29.99
2022-09-06T16:41:50.261Z,29.77
2022-09-06T16:44:19.474Z,29.75
2022-09-06T16:46:48.813Z,29.57
2022-09-06T16:49:19.615Z,29.72
2022-09-06T16:51:48.611Z,31.41
2022-09-06T16:54:21.695Z,33.08
2022-09-06T16:56:48.768Z,33.17
2022-09-06T16:59:17.417Z,33.16
2022-09-06T17:01:45.425Z,32.62
2022-09-06T17:04:20.675Z,31.79
2022-09-06T17:06:47.659Z,32.62
2022-09-06T17:09:17.857Z,33.29
2022-09-06T17:11:45.188Z,34.42
2022-09-06T17:14:13.207Z,33.77
2022-09-06T17:16:58.791Z,32.18
2022-09-06T17:19:25.935Z,32.36
2022-09-06T17:21:52.885Z,33.10
2022-09-06T17:24:20.052Z,33.54
2022-09-06T17:26:47.035Z,32.60
2022-09-06T17:29:14.012Z,32.93
2022-09-06T17:31:40.977Z,32.30
2022-09-06T17:34:18.073Z,32.99
2022-09-06T17:36:45.053Z,34.74
2022-09-06T17:39:14.653Z,34.81
2022-09-06T17:41:45.853Z,34.94
2022-09-06T17:44:18.687Z,34.70
2022-09-06T17:47:09.005Z,36.32
2022-09-06T17:49:33.905Z,36.18
2022-09-06T17:52:00.802Z,36.73
2022-09-06T17:54:32.027Z,36.89
2022-09-06T17:56:59.045Z,37.13
2022-09-06T17:59:25.964Z,36.82
2022-09-06T18:01:52.990Z,36.10
2022-09-06T18:04:20.015Z,35.58
2022-09-06T18:06:47.762Z,38.78
2022-09-06T18:09:17.710Z,39.37
2022-09-06T18:11:48.300Z,41.94
2022-09-06T18:14:21.150Z,44.93
2022-09-06T18:16:49.610Z,49.22
2022-09-06T18:19:17.816Z,52.36
2022-09-06T18:21:45.193Z,51.44
2022-09-06T18:24:14.066Z,52.28
2022-09-06T18:26:41.786Z,52.65
2022-09-06T18:29:12.137Z,54.44
2022-09-06T18:31:39.889Z,51.98
2022-09-06T18:34:08.985Z,53.74
2022-09-06T18:36:36.002Z,55.30
2022-09-06T18:39:04.392Z,55.41
2022-09-06T18:41:51.086Z,56.69
2022-09-06T18:44:32.555Z,54.83
2022-09-06T18:47:02.303Z,55.87
2022-09-06T18:49:30.271Z,53.86
2022-09-06T18:51:57.230Z,56.20
2022-09-06T18:54:35.209Z,53.85
2022-09-06T18:57:02.165Z,61.21
2022-09-06T18:59:29.174Z,61.38
2022-09-06T19:01:56.331Z,64.93
2022-09-06T19:04:23.374Z,66.41
2022-09-06T19:06:50.329Z,67.36
2022-09-06T19:09:17.824Z,62.60
2022-09-06T19:11:47.134Z,60.13
2022-09-06T19:14:29.281Z,58.90
2022-09-06T19:16:56.215Z,56.68
2022-09-06T19:19:23.433Z,57.09
2022-09-06T19:21:50.414Z,55.31
2022-09-06T19:24:17.432Z,54.40
2022-09-06T19:26:45.074Z,56.77
2022-09-06T19:29:17.289Z,55.92
2022-09-06T19:31:45.325Z,62.35
2022-09-06T19:34:13.761Z,62.66
2022-09-06T19:36:40.952Z,58.48
2022-09-06T19:39:10.258Z,56.02
2022-09-06T19:41:39.114Z,57.55
2022-09-06T19:44:08.721Z,57.76
2022-09-06T19:46:36.307Z,62.37
2022-09-06T19:49:03.617Z,60.34
2022-09-06T19:51:30.729Z,59.74
2022-09-06T19:54:00.293Z,59.09
2022-09-06T19:56:32.807Z,56.28
2022-09-06T19:59:02.102Z,56.90
2022-09-06T20:01:32.990Z,57.15
2022-09-06T20:04:03.579Z,59.60
2022-09-06T20:06:31.448Z,54.31
2022-09-06T20:08:59.554Z,51.76
2022-09-06T20:11:30.816Z,52.58
2022-09-06T20:14:05.871Z,55.38
2022-09-06T20:16:33.125Z,54.92
2022-09-06T20:19:00.556Z,54.90
2022-09-06T20:21:28.731Z,56.38
2022-09-06T20:23:57.462Z,55.41
2022-09-06T20:26:26.084Z,56.41
2022-09-06T20:28:58.132Z,55.29
2022-09-06T20:31:25.692Z,55.49
2022-09-06T20:33:52.897Z,56.43
2022-09-06T20:36:19.985Z,56.65
2022-09-06T20:38:47.878Z,55.17
2022-09-06T20:41:17.082Z,50.58
2022-09-06T20:43:50.392Z,51.77
2022-09-06T20:46:19.106Z,50.21
2022-09-06T20:48:46.770Z,48.92
2022-09-06T20:51:16.083Z,50.81
2022-09-06T20:53:44.041Z,51.56
2022-09-06T20:56:13.419Z,55.45
2022-09-06T20:58:40.984Z,60.49
2022-09-06T21:01:10.260Z,57.88
2022-09-06T21:03:39.400Z,54.91
2022-09-06T21:06:11.270Z,52.38
2022-09-06T21:08:42.639Z,52.30
2022-09-06T21:11:10.214Z,52.20
2022-09-06T21:13:37.582Z,52.26
2022-09-06T21:16:05.508Z,52.03
2022-09-06T21:18:33.491Z,53.15
2022-09-06T21:21:02.456Z,56.00
2022-09-06T21:23:30.829Z,61.33
2022-09-06T21:26:02.854Z,62.55
2022-09-06T21:28:32.562Z,60.50
2022-09-06T21:31:04.250Z,57.96
2022-09-06T21:33:33.318Z,59.71
2022-09-06T21:36:07.148Z,61.53
2022-09-06T21:38:34.681Z,60.68
2022-09-06T21:41:02.177Z,59.75
2022-09-06T21:43:29.393Z,58.99
2022-09-06T21:45:58.199Z,62.42
2022-09-06T21:48:25.133Z,61.00
2022-09-06T21:50:52.208Z,60.51
2022-09-06T21:53:19.849Z,56.20
2022-09-06T21:55:46.820Z,51.90
2022-09-06T21:58:13.969Z,53.17
2022-09-06T22:00:41.634Z,53.79
2022-09-06T22:03:09.322Z,53.69
2022-09-06T22:05:38.405Z,53.57
2022-09-06T22:08:05.321Z,53.46
2022-09-06T22:10:32.370Z,54.96
2022-09-06T22:12:59.330Z,54.39
2022-09-06T22:15:26.328Z,54.59
2022-09-06T22:17:53.273Z,56.49
2022-09-06T22:20:21.173Z,55.24
2022-09-06T22:22:48.978Z,51.42
2022-09-06T22:25:16.064Z,49.49
2022-09-06T22:27:43.038Z,51.75
2022-09-06T22:30:10.439Z,52.32
2022-09-06T22:32:37.423Z,49.44
2022-09-06T22:35:06.216Z,49.90
2022-09-06T22:37:36.710Z,50.91
2022-09-06T22:40:04.888Z,49.91
2022-09-06T22:42:31.867Z,51.98
2022-09-06T22:44:58.791Z,52.97
2022-09-06T22:47:25.705Z,53.33
2022-09-06T22:49:52.642Z,54.57
2022-09-06T22:52:19.529Z,53.79
2022-09-06T22:54:47.484Z,49.56
2022-09-06T22:57:14.453Z,51.89
2022-09-06T22:59:41.395Z,52.60
2022-09-06T23:02:08.367Z,50.25
2022-09-06T23:04:36.390Z,52.88
2022-09-06T23:07:03.806Z,50.43
2022-09-06T23:09:30.735Z,51.21
2022-09-06T23:11:57.658Z,53.40
2022-09-06T23:15:05.802Z,54.36
2022-09-06T23:17:33.010Z,54.44
2022-09-06T23:20:00.022Z,55.39
2022-09-06T23:22:26.983Z,56.61
2022-09-06T23:24:53.912Z,54.53
2022-09-06T23:27:20.862Z,51.60
2022-09-06T23:29:47.768Z,51.96
2022-09-06T23:32:15.228Z,53.07
2022-09-06T23:34:49.033Z,53.06
2022-09-06T23:37:16.037Z,54.18
2022-09-06T23:39:43.020Z,52.50
2022-09-06T23:42:10.030Z,51.29
2022-09-06T23:44:36.964Z,52.49
2022-09-06T23:47:03.927Z,53.88
2022-09-06T23:49:30.870Z,55.62
2022-09-06T23:51:57.856Z,55.91
2022-09-06T23:54:26.793Z,55.11
2022-09-06T23:56:53.852Z,53.17
2022-09-06T23:59:20.762Z,55.32
